createdAt,value
2022-07-28T00:00:53.630Z,1.80
2022-07-28T00:03:21.197Z,1.80
2022-07-28T00:05:50.962Z,2.40
2022-07-28T00:08:18.468Z,1.90
2022-07-28T00:10:46.175Z,2.20
2022-07-28T00:13:15.875Z,2.20
2022-07-28T00:15:43.468Z,2.90
2022-07-28T00:18:11.117Z,3.50
2022-07-28T00:20:38.679Z,2.60
2022-07-28T00:23:06.670Z,2.20
2022-07-28T00:25:36.648Z,2.30
2022-07-28T00:28:06.563Z,2.20
2022-07-28T00:30:34.572Z,2.30
2022-07-28T00:33:02.219Z,2.70
2022-07-28T00:35:32.274Z,2.70
2022-07-28T00:38:02.843Z,2.70
2022-07-28T00:40:45.124Z,2.10
2022-07-28T00:43:13.043Z,2.20
2022-07-28T00:45:40.736Z,2.10
2022-07-28T00:48:08.662Z,2.50
2022-07-28T00:50:38.487Z,2.10
2022-07-28T00:53:07.092Z,2.40
2022-07-28T00:56:03.010Z,2.10
2022-07-28T00:58:27.134Z,2.20
2022-07-28T01:00:55.257Z,2.60
2022-07-28T01:03:24.134Z,2.90
2022-07-28T01:06:02.044Z,2.70
2022-07-28T01:08:47.232Z,2.60
2022-07-28T01:11:25.509Z,2.40
2022-07-28T01:14:02.948Z,2.40
2022-07-28T01:16:30.681Z,2.30
2022-07-28T01:19:10.410Z,2.30
2022-07-28T01:21:45.341Z,2.10
2022-07-28T01:24:24.362Z,2.00
2022-07-28T01:27:03.078Z,2.00
2022-07-28T01:30:04.552Z,2.30
2022-07-28T01:32:37.314Z,2.40
2022-07-28T01:35:13.912Z,1.60
2022-07-28T01:37:45.640Z,1.60
2022-07-28T01:40:17.460Z,2.40
2022-07-28T01:42:48.874Z,2.10
2022-07-28T01:45:18.432Z,2.20
2022-07-28T01:47:47.937Z,2.00
2022-07-28T01:50:19.205Z,1.90
2022-07-28T01:52:49.411Z,2.30
2022-07-28T01:55:20.839Z,2.10
2022-07-28T01:57:51.198Z,1.90
2022-07-28T02:00:19.971Z,1.70
2022-07-28T02:02:51.711Z,1.40
2022-07-28T02:05:22.021Z,2.00
2022-07-28T02:07:52.713Z,1.90
2022-07-28T02:10:21.300Z,1.90
2022-07-28T02:12:51.004Z,2.30
2022-07-28T02:15:20.991Z,2.70
2022-07-28T02:17:51.637Z,2.40
2022-07-28T02:20:21.191Z,1.80
2022-07-28T02:22:53.141Z,1.90
2022-07-28T02:25:21.244Z,1.80
2022-07-28T02:27:53.124Z,1.60
2022-07-28T02:30:30.328Z,1.70
2022-07-28T02:33:02.343Z,2.00
2022-07-28T02:35:33.522Z,2.10
2022-07-28T02:38:11.737Z,1.80
2022-07-28T02:40:42.815Z,1.50
2022-07-28T02:43:15.464Z,2.10
2022-07-28T02:45:47.664Z,1.90
2022-07-28T02:48:21.872Z,2.10
2022-07-28T02:50:51.314Z,2.10
2022-07-28T02:53:20.009Z,2.20
2022-07-28T02:55:49.824Z,2.20
2022-07-28T02:58:21.205Z,2.10
2022-07-28T03:00:50.584Z,2.10
2022-07-28T03:03:19.549Z,2.00
2022-07-28T03:05:47.918Z,1.90
2022-07-28T03:08:16.845Z,2.00
2022-07-28T03:10:44.632Z,2.00
2022-07-28T03:13:12.770Z,2.30
2022-07-28T03:15:40.403Z,2.40
2022-07-28T03:18:08.382Z,2.40
2022-07-28T03:20:35.958Z,2.60
2022-07-28T03:23:03.663Z,2.10
2022-07-28T03:25:39.293Z,2.00
2022-07-28T03:28:13.392Z,2.20
2022-07-28T03:30:47.770Z,1.90
2022-07-28T03:33:15.952Z,1.90
2022-07-28T03:35:48.039Z,1.80
2022-07-28T03:38:20.531Z,1.80
2022-07-28T03:40:49.708Z,2.30
2022-07-28T03:43:21.249Z,1.80
2022-07-28T03:45:49.690Z,2.00
2022-07-28T03:48:17.451Z,2.50
2022-07-28T03:50:44.947Z,2.50
2022-07-28T03:53:19.421Z,2.10
2022-07-28T03:55:50.211Z,3.00
2022-07-28T03:58:18.311Z,2.10
2022-07-28T04:00:46.301Z,2.30
2022-07-28T04:03:35.670Z,1.70
2022-07-28T04:06:06.766Z,2.60
2022-07-28T04:08:35.596Z,2.40
2022-07-28T04:11:03.148Z,2.20
2022-07-28T04:13:31.681Z,2.50
2022-07-28T04:16:02.491Z,2.10
2022-07-28T04:18:31.283Z,2.00
2022-07-28T04:20:58.852Z,2.20
2022-07-28T04:23:26.518Z,2.70
2022-07-28T04:25:54.705Z,2.50
2022-07-28T04:28:22.358Z,2.20
2022-07-28T04:30:50.425Z,2.30
2022-07-28T04:33:18.727Z,2.30
2022-07-28T04:35:46.627Z,2.50
2022-07-28T04:38:16.500Z,2.80
2022-07-28T04:40:44.011Z,2.70
2022-07-28T04:43:11.520Z,3.10
2022-07-28T04:45:39.231Z,2.20
2022-07-28T04:48:14.624Z,2.90
2022-07-28T04:50:45.331Z,2.60
2022-07-28T04:53:13.246Z,2.70
2022-07-28T04:55:40.753Z,2.90
2022-07-28T04:58:09.432Z,2.90
2022-07-28T05:00:37.159Z,2.90
2022-07-28T05:03:04.743Z,2.70
2022-07-28T05:05:32.277Z,3.10
2022-07-28T05:07:59.871Z,2.50
2022-07-28T05:10:27.789Z,2.70
2022-07-28T05:12:56.131Z,2.60
2022-07-28T05:15:24.121Z,2.40
2022-07-28T05:17:51.661Z,2.30
2022-07-28T05:20:19.638Z,2.30
2022-07-28T05:22:50.229Z,2.20
2022-07-28T05:25:20.072Z,2.60
2022-07-28T05:27:48.639Z,2.70
2022-07-28T05:30:17.065Z,2.10
2022-07-28T05:32:45.190Z,2.90
2022-07-28T05:35:13.515Z,2.30
2022-07-28T05:37:41.593Z,2.20
2022-07-28T05:40:13.281Z,2.50
2022-07-28T05:42:41.645Z,2.30
2022-07-28T05:45:15.841Z,2.30
2022-07-28T05:47:46.139Z,2.30
2022-07-28T05:50:14.814Z,2.00
2022-07-28T05:52:42.871Z,2.60
2022-07-28T05:55:11.459Z,2.00
2022-07-28T05:57:40.582Z,1.80
2022-07-28T06:00:11.804Z,2.20
2022-07-28T06:02:39.651Z,1.90
2022-07-28T06:05:08.899Z,2.10
2022-07-28T06:07:43.658Z,2.00
2022-07-28T06:10:12.572Z,1.70
2022-07-28T06:12:41.170Z,1.70
2022-07-28T06:15:13.510Z,1.70
2022-07-28T06:17:41.148Z,1.40
2022-07-28T06:20:12.034Z,1.50
2022-07-28T06:22:44.486Z,1.30
2022-07-28T06:25:16.598Z,1.40
2022-07-28T06:27:45.775Z,1.30
2022-07-28T06:30:13.943Z,1.90
2022-07-28T06:32:42.007Z,1.80
2022-07-28T06:35:11.427Z,1.60
2022-07-28T06:37:39.181Z,1.70
2022-07-28T06:40:11.128Z,1.30
2022-07-28T06:42:38.827Z,1.60
2022-07-28T06:45:08.632Z,1.50
2022-07-28T06:47:36.340Z,1.30
2022-07-28T06:50:25.093Z,1.80
2022-07-28T06:52:55.370Z,1.80
2022-07-28T06:55:23.333Z,2.10
2022-07-28T06:57:51.078Z,2.30
2022-07-28T07:00:19.149Z,1.90
2022-07-28T07:02:46.673Z,1.90
2022-07-28T07:05:14.279Z,1.70
2022-07-28T07:07:43.635Z,1.40
2022-07-28T07:10:12.147Z,1.60
2022-07-28T07:12:40.091Z,1.80
2022-07-28T07:15:10.684Z,2.00
2022-07-28T07:17:38.317Z,1.30
2022-07-28T07:20:08.648Z,1.30
2022-07-28T07:22:42.533Z,1.20
2022-07-28T07:25:11.524Z,1.60
2022-07-28T07:27:39.149Z,1.50
2022-07-28T07:30:08.948Z,3.20
2022-07-28T07:32:37.412Z,2.20
2022-07-28T07:35:07.414Z,1.00
2022-07-28T07:37:35.122Z,1.10
2022-07-28T07:40:05.049Z,0.70
2022-07-28T07:42:33.028Z,0.90
2022-07-28T07:45:00.747Z,0.80
2022-07-28T07:47:28.453Z,0.70
2022-07-28T07:49:56.130Z,0.70
2022-07-28T07:52:23.754Z,0.80
2022-07-28T07:54:51.376Z,1.00
2022-07-28T07:57:19.069Z,0.60
2022-07-28T07:59:46.865Z,0.90
2022-07-28T08:02:14.515Z,0.90
2022-07-28T08:04:42.269Z,1.00
2022-07-28T08:07:10.517Z,0.60
2022-07-28T08:09:38.040Z,0.90
2022-07-28T08:12:06.872Z,1.30
2022-07-28T08:14:34.454Z,0.70
2022-07-28T08:17:02.023Z,0.60
2022-07-28T08:19:29.816Z,0.70
2022-07-28T08:21:57.431Z,0.90
2022-07-28T08:24:31.672Z,0.60
2022-07-28T08:29:28.565Z,0.80
2022-07-28T08:31:56.137Z,1.50
2022-07-28T08:34:29.801Z,0.90
2022-07-28T08:37:01.241Z,0.80
2022-07-28T08:39:28.972Z,1.10
2022-07-28T08:42:02.515Z,1.00
2022-07-28T08:44:37.994Z,0.70
2022-07-28T08:47:10.261Z,1.20
2022-07-28T08:49:40.416Z,0.70
2022-07-28T08:52:11.277Z,0.50
2022-07-28T08:54:42.560Z,1.10
2022-07-28T08:57:13.420Z,1.30
2022-07-28T08:59:41.632Z,0.70
2022-07-28T09:02:12.338Z,0.70
2022-07-28T09:04:41.169Z,0.90
2022-07-28T09:07:10.552Z,0.90
2022-07-28T09:09:38.669Z,1.20
2022-07-28T09:12:07.451Z,0.90
2022-07-28T09:14:35.461Z,1.20
2022-07-28T09:17:05.366Z,1.00
2022-07-28T09:19:36.864Z,1.20
2022-07-28T09:22:05.753Z,0.70
2022-07-28T09:24:35.319Z,1.20
2022-07-28T09:27:06.882Z,1.10
2022-07-28T09:29:36.111Z,1.20
2022-07-28T09:32:04.444Z,1.30
2022-07-28T09:34:41.018Z,0.90
2022-07-28T09:37:20.985Z,1.10
2022-07-28T09:39:53.889Z,1.00
2022-07-28T09:42:21.660Z,1.40
2022-07-28T09:45:22.266Z,0.80
2022-07-28T09:48:09.845Z,1.10
2022-07-28T09:50:39.006Z,1.00
2022-07-28T09:53:23.321Z,1.00
2022-07-28T09:55:59.002Z,1.10
2022-07-28T09:58:27.445Z,1.10
2022-07-28T10:01:09.599Z,1.00
2022-07-28T10:03:40.799Z,1.20
2022-07-28T10:06:13.613Z,1.00
2022-07-28T10:08:43.435Z,1.00
2022-07-28T10:11:12.541Z,1.20
2022-07-28T10:13:56.411Z,1.20
2022-07-28T10:16:26.658Z,0.90
2022-07-28T10:18:55.417Z,1.30
2022-07-28T10:21:24.250Z,0.80
2022-07-28T10:23:53.894Z,1.00
2022-07-28T10:26:25.660Z,1.20
2022-07-28T10:28:54.876Z,1.20
2022-07-28T10:31:38.753Z,1.10
2022-07-28T10:34:16.336Z,1.20
2022-07-28T10:36:45.009Z,1.30
2022-07-28T10:39:17.923Z,1.50
2022-07-28T10:41:45.982Z,1.30
2022-07-28T10:44:14.530Z,1.60
2022-07-28T10:46:43.936Z,1.20
2022-07-28T10:49:13.588Z,1.20
2022-07-28T10:52:00.117Z,1.30
2022-07-28T10:54:34.152Z,1.30
2022-07-28T10:57:04.880Z,4.10
2022-07-28T11:00:05.332Z,1.90
2022-07-28T11:02:45.170Z,1.10
2022-07-28T11:05:31.392Z,1.50
2022-07-28T11:08:00.781Z,1.20
2022-07-28T11:10:29.488Z,1.20
2022-07-28T11:12:58.277Z,1.40
2022-07-28T11:15:33.837Z,1.20
2022-07-28T11:18:05.991Z,1.00
2022-07-28T11:21:08.065Z,0.80
2022-07-28T11:23:53.252Z,1.10
2022-07-28T11:26:38.093Z,1.00
2022-07-28T11:29:15.967Z,1.00
2022-07-28T11:32:03.491Z,1.10
2022-07-28T11:35:02.526Z,1.10
2022-07-28T11:37:30.700Z,1.60
2022-07-28T11:40:29.698Z,0.80
2022-07-28T11:43:37.416Z,1.00
2022-07-28T11:46:23.670Z,1.30
2022-07-28T11:49:26.846Z,1.10
2022-07-28T11:52:14.088Z,1.30
2022-07-28T11:54:49.929Z,1.40
2022-07-28T11:57:19.130Z,1.20
2022-07-28T11:59:50.096Z,1.50
2022-07-28T12:02:19.941Z,1.30
2022-07-28T12:04:55.840Z,1.10
2022-07-28T12:07:30.783Z,1.10
2022-07-28T12:09:58.531Z,1.10
2022-07-28T12:12:27.700Z,1.20
2022-07-28T12:14:56.786Z,1.60
2022-07-28T12:17:33.765Z,1.10
2022-07-28T12:20:11.584Z,1.10
2022-07-28T12:22:53.583Z,1.00
2022-07-28T12:25:21.241Z,0.90
2022-07-28T12:27:50.777Z,1.10
2022-07-28T12:30:27.687Z,1.20
2022-07-28T12:32:56.737Z,1.00
2022-07-28T12:35:25.311Z,1.10
2022-07-28T12:37:53.041Z,1.10
2022-07-28T12:40:27.521Z,1.10
2022-07-28T12:42:55.447Z,1.10
2022-07-28T12:45:23.318Z,1.40
2022-07-28T12:47:50.994Z,0.80
2022-07-28T12:50:20.345Z,1.10
2022-07-28T12:53:03.554Z,1.00
2022-07-28T12:55:31.700Z,0.90
2022-07-28T12:57:59.781Z,1.40
2022-07-28T13:00:31.000Z,1.10
2022-07-28T13:03:00.025Z,1.50
2022-07-28T13:05:53.751Z,1.40
2022-07-28T13:08:21.542Z,1.90
2022-07-28T13:10:51.670Z,1.40
2022-07-28T13:13:23.570Z,1.80
2022-07-28T13:16:13.723Z,1.50
2022-07-28T13:18:42.226Z,1.60
2022-07-28T13:21:11.075Z,2.20
2022-07-28T13:23:39.276Z,1.70
2022-07-28T13:26:08.192Z,2.00
2022-07-28T13:28:36.110Z,1.90
2022-07-28T13:31:03.727Z,1.80
2022-07-28T13:33:31.295Z,1.60
2022-07-28T13:36:00.011Z,1.70
2022-07-28T13:38:27.643Z,1.70
2022-07-28T13:40:55.360Z,2.30
2022-07-28T13:43:23.055Z,1.90
2022-07-28T13:46:03.674Z,1.80
2022-07-28T13:48:35.142Z,1.30
2022-07-28T13:51:02.753Z,1.50
2022-07-28T13:53:30.304Z,1.90
2022-07-28T13:55:57.927Z,1.80
2022-07-28T13:58:25.430Z,2.00
2022-07-28T14:00:54.919Z,2.10
2022-07-28T14:03:22.737Z,2.30
2022-07-28T14:05:50.485Z,1.90
2022-07-28T14:08:19.274Z,1.80
2022-07-28T14:10:48.174Z,2.00
2022-07-28T14:13:16.225Z,1.10
2022-07-28T14:15:44.691Z,1.70
2022-07-28T14:18:12.851Z,1.70
2022-07-28T14:20:40.536Z,1.70
2022-07-28T14:23:08.090Z,1.60
2022-07-28T14:25:48.523Z,1.60
2022-07-28T14:28:17.070Z,1.60
2022-07-28T14:30:44.770Z,1.60
2022-07-28T14:33:12.393Z,1.90
2022-07-28T14:35:39.941Z,1.50
2022-07-28T14:41:43.638Z,1.20
2022-07-28T14:44:15.384Z,1.40
2022-07-28T14:46:44.164Z,1.40
2022-07-28T14:49:11.927Z,1.30
2022-07-28T14:51:44.665Z,1.40
2022-07-28T14:54:13.098Z,1.30
2022-07-28T14:56:40.975Z,1.10
2022-07-28T14:59:08.620Z,1.00
2022-07-28T15:01:36.498Z,1.10
2022-07-28T15:04:04.792Z,1.20
2022-07-28T15:06:32.589Z,1.40
2022-07-28T15:09:01.759Z,1.20
2022-07-28T15:11:29.790Z,1.30
2022-07-28T15:13:57.343Z,1.10
2022-07-28T15:16:25.024Z,1.10
2022-07-28T15:18:53.613Z,1.00
2022-07-28T15:21:21.684Z,1.20
2022-07-28T15:23:49.387Z,1.10
2022-07-28T15:26:17.048Z,1.00
2022-07-28T15:28:47.651Z,1.10
2022-07-28T15:31:15.406Z,1.10
2022-07-28T15:33:48.254Z,1.00
2022-07-28T15:36:19.004Z,0.90
2022-07-28T15:38:50.847Z,0.80
2022-07-28T15:41:19.031Z,0.90
2022-07-28T15:43:47.028Z,0.70
2022-07-28T15:46:15.365Z,0.90
2022-07-28T15:48:44.566Z,0.60
2022-07-28T15:51:12.414Z,0.70
2022-07-28T15:53:41.270Z,0.70
2022-07-28T15:56:08.804Z,0.70
2022-07-28T15:58:36.522Z,0.50
2022-07-28T16:01:04.411Z,0.80
2022-07-28T16:03:32.257Z,0.70
2022-07-28T16:05:59.802Z,0.60
2022-07-28T16:08:27.381Z,0.70
2022-07-28T16:10:55.145Z,0.70
2022-07-28T16:13:31.338Z,0.60
2022-07-28T16:16:07.540Z,0.80
2022-07-28T16:18:37.326Z,0.60
2022-07-28T16:21:05.977Z,0.70
2022-07-28T16:23:34.154Z,0.90
2022-07-28T16:26:02.316Z,0.90
2022-07-28T16:28:30.834Z,0.70
2022-07-28T16:30:58.524Z,0.70
2022-07-28T16:33:26.060Z,0.70
2022-07-28T16:35:53.618Z,0.80
2022-07-28T16:38:21.132Z,0.70
2022-07-28T16:40:48.964Z,0.90
2022-07-28T16:43:16.981Z,0.90
2022-07-28T16:45:44.570Z,0.60
2022-07-28T16:48:12.630Z,0.70
2022-07-28T16:50:42.619Z,0.80
2022-07-28T16:53:10.107Z,0.70
2022-07-28T16:55:37.655Z,0.80
2022-07-28T16:58:05.233Z,0.60
2022-07-28T17:00:32.969Z,0.80
2022-07-28T17:03:00.469Z,0.80
2022-07-28T17:05:28.025Z,0.80
2022-07-28T17:07:55.830Z,0.90
2022-07-28T17:10:27.453Z,0.50
2022-07-28T17:12:57.240Z,1.00
2022-07-28T17:15:24.881Z,1.00
2022-07-28T17:17:53.466Z,0.80
2022-07-28T17:20:21.433Z,0.90
2022-07-28T17:22:49.391Z,0.80
2022-07-28T17:28:05.525Z,0.70
2022-07-28T17:30:34.074Z,0.50
2022-07-28T17:33:08.359Z,0.60
2022-07-28T17:35:37.900Z,0.70
2022-07-28T17:38:08.859Z,0.80
2022-07-28T17:40:38.911Z,0.70
2022-07-28T17:43:06.552Z,0.60
2022-07-28T17:45:34.048Z,0.70
2022-07-28T17:48:01.578Z,0.80
2022-07-28T17:50:29.628Z,1.10
2022-07-28T17:52:57.300Z,1.00
2022-07-28T17:55:55.744Z,0.70
2022-07-28T17:58:26.335Z,0.70
2022-07-28T18:00:58.626Z,0.80
2022-07-28T18:03:58.727Z,0.70
2022-07-28T18:06:26.521Z,0.80
2022-07-28T18:08:54.206Z,1.00
2022-07-28T18:11:22.008Z,0.80
2022-07-28T18:14:04.982Z,0.90
2022-07-28T18:16:33.735Z,1.00
2022-07-28T18:19:01.320Z,0.80
2022-07-28T18:21:29.150Z,0.80
2022-07-28T18:23:56.822Z,0.70
2022-07-28T18:26:24.327Z,0.80
2022-07-28T18:28:51.896Z,0.60
2022-07-28T18:31:20.933Z,0.70
2022-07-28T18:33:48.786Z,0.80
2022-07-28T18:36:16.290Z,1.00
2022-07-28T18:38:43.864Z,0.70
2022-07-28T18:41:11.419Z,0.70
2022-07-28T18:43:39.036Z,1.00
2022-07-28T18:46:06.572Z,0.70
2022-07-28T18:48:34.136Z,0.60
2022-07-28T18:51:02.067Z,0.90
2022-07-28T18:53:29.754Z,0.90
2022-07-28T18:55:57.498Z,0.90
2022-07-28T18:58:25.070Z,0.90
2022-07-28T19:00:52.604Z,0.90
2022-07-28T19:03:20.256Z,1.10
2022-07-28T19:05:47.880Z,0.70
2022-07-28T19:08:15.774Z,0.70
2022-07-28T19:10:45.199Z,1.20
2022-07-28T19:13:13.420Z,0.90
2022-07-28T19:15:41.572Z,0.80
2022-07-28T19:18:11.460Z,1.00
2022-07-28T19:20:39.896Z,0.90
2022-07-28T19:23:07.583Z,1.20
2022-07-28T19:25:36.953Z,0.60
2022-07-28T19:28:05.186Z,0.80
2022-07-28T19:30:34.301Z,1.10
2022-07-28T19:33:02.064Z,1.10
2022-07-28T19:35:30.005Z,1.00
2022-07-28T19:37:59.289Z,1.20
2022-07-28T19:40:28.962Z,1.20
2022-07-28T19:42:56.878Z,0.90
2022-07-28T19:45:25.136Z,1.20
2022-07-28T19:47:55.767Z,1.00
2022-07-28T19:50:23.390Z,1.50
2022-07-28T19:52:51.183Z,1.10
2022-07-28T19:55:20.333Z,1.40
2022-07-28T19:57:48.262Z,1.00
2022-07-28T20:00:17.063Z,1.10
2022-07-28T20:02:45.239Z,1.10
2022-07-28T20:05:15.561Z,1.20
2022-07-28T20:07:48.184Z,1.50
2022-07-28T20:10:16.194Z,1.30
2022-07-28T20:12:44.856Z,1.10
2022-07-28T20:15:15.215Z,1.70
2022-07-28T20:17:43.005Z,1.10
2022-07-28T20:20:13.246Z,1.20
2022-07-28T20:22:41.338Z,1.00
2022-07-28T20:25:12.386Z,1.10
2022-07-28T20:27:41.351Z,1.20
2022-07-28T20:30:10.672Z,1.10
2022-07-28T20:32:39.268Z,1.10
2022-07-28T20:35:10.084Z,1.30
2022-07-28T20:37:38.609Z,1.20
2022-07-28T20:40:08.976Z,1.10
2022-07-28T20:42:36.976Z,1.10
2022-07-28T20:45:06.978Z,1.40
2022-07-28T20:47:35.587Z,1.10
2022-07-28T20:50:04.643Z,1.20
2022-07-28T20:52:36.446Z,1.40
2022-07-28T20:55:04.553Z,1.00
2022-07-28T20:57:32.184Z,1.00
2022-07-28T20:59:59.822Z,1.30
2022-07-28T21:02:30.701Z,1.40
2022-07-28T21:04:59.018Z,1.10
2022-07-28T21:08:04.560Z,1.10
2022-07-28T21:10:14.501Z,1.40
2022-07-28T21:12:42.085Z,1.30
2022-07-28T21:15:11.426Z,1.40
2022-07-28T21:17:40.858Z,1.50
2022-07-28T21:20:10.931Z,1.40
2022-07-28T21:22:38.867Z,1.50
2022-07-28T21:25:08.208Z,1.60
2022-07-28T21:27:50.443Z,1.60
2022-07-28T21:30:18.079Z,1.70
2022-07-28T21:32:45.699Z,1.90
2022-07-28T21:35:14.473Z,1.50
2022-07-28T21:37:42.551Z,1.20
2022-07-28T21:40:11.419Z,1.50
2022-07-28T21:42:39.395Z,1.30
2022-07-28T21:45:11.165Z,1.50
2022-07-28T21:47:39.598Z,1.40
2022-07-28T21:50:08.609Z,1.30
2022-07-28T21:52:37.598Z,1.40
2022-07-28T21:55:08.165Z,1.60
2022-07-28T21:57:36.023Z,1.40
2022-07-28T22:00:07.152Z,1.70
2022-07-28T22:02:34.897Z,1.60
2022-07-28T22:05:02.583Z,1.50
2022-07-28T22:07:30.084Z,1.60
2022-07-28T22:09:57.607Z,1.70
2022-07-28T22:12:26.309Z,1.70
2022-07-28T22:14:53.989Z,1.50
2022-07-28T22:17:21.596Z,2.10
2022-07-28T22:19:49.206Z,1.70
2022-07-28T22:22:17.841Z,1.70
2022-07-28T22:24:45.529Z,1.40
2022-07-28T22:27:13.372Z,1.90
2022-07-28T22:29:43.499Z,1.40
2022-07-28T22:34:54.513Z,1.60
2022-07-28T22:37:22.169Z,2.20
2022-07-28T22:39:49.758Z,2.10
2022-07-28T22:42:17.303Z,1.60
2022-07-28T22:44:45.072Z,1.70
2022-07-28T22:47:12.590Z,1.80
2022-07-28T22:49:40.236Z,2.00
2022-07-28T22:52:08.002Z,1.50
2022-07-28T22:54:38.296Z,1.50
2022-07-28T22:57:06.204Z,1.30
2022-07-28T22:59:38.456Z,1.40
2022-07-28T23:02:07.475Z,1.80
2022-07-28T23:04:35.068Z,1.50
2022-07-28T23:07:03.218Z,1.40
2022-07-28T23:09:31.322Z,1.60
2022-07-28T23:11:58.843Z,1.40
2022-07-28T23:14:26.586Z,1.60
2022-07-28T23:16:54.317Z,1.20
2022-07-28T23:19:22.137Z,1.50
2022-07-28T23:21:49.806Z,1.90
2022-07-28T23:24:17.815Z,1.50
2022-07-28T23:26:46.107Z,1.30
2022-07-28T23:29:13.736Z,1.70
2022-07-28T23:31:42.423Z,1.90
2022-07-28T23:34:10.117Z,1.60
2022-07-28T23:36:37.837Z,1.90
2022-07-28T23:39:06.057Z,1.70
2022-07-28T23:41:33.747Z,1.80
2022-07-28T23:44:01.549Z,1.50
2022-07-28T23:46:29.291Z,1.50
2022-07-28T23:48:57.518Z,1.70
2022-07-28T23:51:32.098Z,1.60
2022-07-28T23:54:14.531Z,1.90
2022-07-28T23:56:43.299Z,1.50
2022-07-28T23:59:14.082Z,1.60
